createdAt,value
2023-04-11T00:01:29.665Z,64.67
2023-04-11T00:03:57.210Z,64.40
2023-04-11T00:06:27.952Z,64.44
2023-04-11T00:08:55.051Z,64.29
2023-04-11T00:11:22.008Z,64.03
2023-04-11T00:13:48.865Z,65.04
2023-04-11T00:16:16.841Z,63.97
2023-04-11T00:18:45.167Z,64.58
2023-04-11T00:21:12.040Z,64.17
2023-04-11T00:23:38.976Z,64.76
2023-04-11T00:26:06.308Z,64.69
2023-04-11T00:28:33.283Z,64.22
2023-04-11T00:31:00.209Z,64.69
2023-04-11T00:33:27.166Z,64.88
2023-04-11T00:35:54.060Z,64.78
2023-04-11T00:38:20.919Z,63.51
2023-04-11T00:40:47.852Z,62.95
2023-04-11T00:43:14.699Z,63.16
2023-04-11T00:45:41.569Z,62.92
2023-04-11T00:48:08.530Z,62.46
2023-04-11T00:50:40.130Z,62.50
2023-04-11T00:53:06.892Z,61.47
2023-04-11T00:55:34.221Z,60.87
2023-04-11T00:58:01.636Z,61.05
2023-04-11T01:00:33.036Z,60.81
2023-04-11T01:03:01.087Z,60.30
2023-04-11T01:05:30.554Z,59.77
2023-04-11T01:07:57.782Z,59.66
2023-04-11T01:10:25.593Z,59.44
2023-04-11T01:12:53.069Z,59.17
2023-04-11T01:15:19.863Z,58.57
2023-04-11T01:17:48.203Z,58.18
2023-04-11T01:20:15.188Z,58.62
2023-04-11T01:22:43.079Z,58.37
2023-04-11T01:25:09.945Z,58.29
2023-04-11T01:27:37.772Z,58.94
2023-04-11T01:30:05.796Z,58.48
2023-04-11T01:32:32.644Z,58.07
2023-04-11T01:35:00.192Z,58.62
2023-04-11T01:37:27.113Z,58.69
2023-04-11T01:39:53.952Z,58.89
2023-04-11T01:42:22.606Z,59.03
2023-04-11T01:44:51.438Z,59.13
2023-04-11T01:47:18.292Z,59.13
2023-04-11T01:49:44.944Z,59.48
2023-04-11T01:52:11.822Z,60.02
2023-04-11T01:54:38.552Z,60.63
2023-04-11T01:57:06.549Z,61.27
2023-04-11T01:59:33.401Z,61.79
2023-04-11T02:02:00.533Z,61.70
2023-04-11T02:04:27.582Z,61.24
2023-04-11T02:06:54.425Z,60.95
2023-04-11T02:09:21.194Z,61.15
2023-04-11T02:11:48.076Z,60.97
2023-04-11T02:14:14.876Z,60.96
2023-04-11T02:16:58.209Z,61.21
2023-04-11T02:19:26.036Z,62.32
2023-04-11T02:21:53.014Z,64.43
2023-04-11T02:24:19.758Z,65.21
2023-04-11T02:26:46.511Z,66.13
2023-04-11T02:29:13.426Z,67.06
2023-04-11T02:31:40.583Z,70.14
2023-04-11T02:34:07.468Z,72.13
2023-04-11T02:36:34.756Z,73.41
2023-04-11T02:39:01.414Z,75.71
2023-04-11T02:41:28.151Z,78.38
2023-04-11T02:43:56.201Z,81.73
2023-04-11T02:46:23.056Z,87.57
2023-04-11T02:48:49.965Z,91.47
2023-04-11T02:51:16.786Z,95.07
2023-04-11T02:53:43.493Z,97.61
2023-04-11T02:56:10.886Z,100.11
2023-04-11T02:58:41.979Z,103.10
2023-04-11T03:01:11.272Z,104.50
2023-04-11T03:03:41.614Z,105.96
2023-04-11T03:06:09.116Z,108.01
2023-04-11T03:08:36.168Z,110.14
2023-04-11T03:11:03.982Z,111.26
2023-04-11T03:13:30.759Z,112.93
2023-04-11T03:15:57.521Z,113.45
2023-04-11T03:18:24.350Z,114.78
2023-04-11T03:20:52.030Z,115.03
2023-04-11T03:23:18.800Z,116.81
2023-04-11T03:25:45.640Z,117.70
2023-04-11T03:28:12.512Z,117.74
2023-04-11T03:30:41.099Z,117.80
2023-04-11T03:33:08.629Z,118.11
2023-04-11T03:35:36.509Z,118.16
2023-04-11T03:38:03.882Z,118.99
2023-04-11T03:40:30.633Z,118.99
2023-04-11T03:42:59.863Z,118.99
2023-04-11T03:45:27.558Z,118.99
2023-04-11T03:47:54.573Z,118.99
2023-04-11T03:50:21.729Z,118.99
2023-04-11T03:52:48.423Z,118.99
2023-04-11T03:55:15.258Z,118.99
2023-04-11T03:57:42.210Z,118.99
2023-04-11T04:00:10.146Z,118.99
2023-04-11T04:02:36.879Z,118.99
2023-04-11T04:05:04.007Z,118.99
2023-04-11T04:07:31.871Z,118.99
2023-04-11T04:09:58.702Z,118.99
2023-04-11T04:12:26.335Z,118.99
2023-04-11T04:14:53.024Z,118.99
2023-04-11T04:17:19.791Z,118.99
2023-04-11T04:19:46.465Z,118.99
2023-04-11T04:22:13.280Z,118.99
2023-04-11T04:24:41.958Z,118.99
2023-04-11T04:27:11.658Z,118.99
2023-04-11T04:29:39.093Z,118.99
2023-04-11T04:32:12.889Z,118.99
2023-04-11T04:34:49.320Z,118.99
2023-04-11T04:37:23.126Z,118.99
2023-04-11T04:39:56.795Z,118.99
2023-04-11T04:42:25.288Z,118.99
2023-04-11T04:44:53.233Z,118.99
2023-04-11T04:47:23.596Z,118.99
2023-04-11T04:49:55.521Z,118.99
2023-04-11T04:52:24.409Z,118.99
2023-04-11T04:54:51.383Z,118.99
2023-04-11T04:57:18.166Z,118.99
2023-04-11T04:59:45.498Z,118.99
2023-04-11T05:02:12.360Z,118.99
2023-04-11T05:04:39.372Z,118.99
2023-04-11T05:07:06.373Z,118.99
2023-04-11T05:09:33.223Z,118.99
2023-04-11T05:12:01.250Z,118.99
2023-04-11T05:14:28.075Z,118.99
2023-04-11T05:16:54.877Z,118.99
2023-04-11T05:19:21.683Z,118.99
2023-04-11T05:21:48.445Z,118.99
2023-04-11T05:24:15.282Z,118.99
2023-04-11T05:26:42.247Z,118.99
2023-04-11T05:29:09.248Z,118.99
2023-04-11T05:31:36.016Z,118.99
2023-04-11T05:34:02.716Z,118.99
2023-04-11T05:36:29.945Z,118.99
2023-04-11T05:38:56.629Z,118.99
2023-04-11T05:41:23.395Z,118.99
2023-04-11T05:43:50.060Z,118.99
2023-04-11T05:46:17.604Z,118.99
2023-04-11T05:48:44.460Z,118.99
2023-04-11T05:51:11.225Z,118.99
2023-04-11T05:53:38.080Z,118.99
2023-04-11T05:56:05.030Z,118.99
2023-04-11T05:58:31.830Z,118.99
2023-04-11T06:00:59.775Z,118.99
2023-04-11T06:03:27.289Z,118.99
2023-04-11T06:05:54.482Z,118.99
2023-04-11T06:08:21.537Z,118.99
2023-04-11T06:10:48.375Z,118.99
2023-04-11T06:13:15.232Z,118.99
2023-04-11T06:15:42.063Z,118.99
2023-04-11T06:18:08.867Z,118.99
2023-04-11T06:20:35.704Z,118.99
2023-04-11T06:23:02.422Z,118.99
2023-04-11T06:25:29.172Z,118.99
2023-04-11T06:27:56.000Z,118.99
2023-04-11T06:30:22.911Z,118.99
2023-04-11T06:32:49.746Z,118.99
2023-04-11T06:35:16.683Z,118.99
2023-04-11T06:37:43.461Z,118.99
2023-04-11T06:40:10.625Z,118.99
2023-04-11T06:42:37.391Z,118.99
2023-04-11T06:45:06.112Z,118.99
2023-04-11T06:47:33.103Z,118.99
2023-04-11T06:49:59.959Z,118.99
2023-04-11T06:52:28.183Z,118.99
2023-04-11T06:54:55.248Z,117.08
2023-04-11T06:57:22.068Z,116.43
2023-04-11T06:59:48.768Z,113.99
2023-04-11T07:02:15.620Z,113.85
2023-04-11T07:04:42.587Z,114.04
2023-04-11T07:07:09.458Z,112.18
2023-04-11T07:09:36.339Z,113.06
2023-04-11T07:12:03.136Z,112.32
2023-04-11T07:14:29.977Z,111.18
2023-04-11T07:16:56.611Z,111.31
2023-04-11T07:19:23.473Z,108.85
2023-04-11T07:21:50.221Z,110.36
2023-04-11T07:24:18.689Z,110.05
2023-04-11T07:26:46.518Z,109.59
2023-04-11T07:29:14.898Z,109.03
2023-04-11T07:31:42.150Z,107.67
2023-04-11T07:34:08.952Z,107.77
2023-04-11T07:36:35.831Z,105.01
2023-04-11T07:39:04.176Z,102.71
2023-04-11T07:41:30.992Z,102.12
2023-04-11T07:43:57.955Z,103.70
2023-04-11T07:46:25.070Z,101.65
2023-04-11T07:48:51.952Z,100.54
2023-04-11T07:51:18.845Z,102.38
2023-04-11T07:53:45.655Z,102.55
2023-04-11T07:56:13.448Z,101.86
2023-04-11T07:58:40.342Z,101.78
2023-04-11T08:01:18.927Z,100.32
2023-04-11T08:03:46.087Z,98.36
2023-04-11T08:06:13.019Z,97.25
2023-04-11T08:08:39.857Z,96.90
2023-04-11T08:11:06.962Z,95.99
2023-04-11T08:13:33.850Z,94.00
2023-04-11T08:16:00.855Z,93.49
2023-04-11T08:18:27.626Z,95.81
2023-04-11T08:20:54.364Z,94.14
2023-04-11T08:23:21.634Z,93.90
2023-04-11T08:25:48.371Z,94.74
2023-04-11T08:28:15.516Z,95.66
2023-04-11T08:30:42.535Z,94.96
2023-04-11T08:33:10.134Z,94.30
2023-04-11T08:35:37.842Z,93.82
2023-04-11T08:38:04.578Z,94.36
2023-04-11T08:40:31.461Z,93.58
2023-04-11T08:42:59.805Z,94.31
2023-04-11T08:45:27.202Z,92.47
2023-04-11T08:47:54.344Z,93.66
2023-04-11T08:50:21.251Z,94.93
2023-04-11T08:52:50.021Z,91.55
2023-04-11T08:55:16.731Z,90.68
2023-04-11T08:57:43.906Z,91.34
2023-04-11T09:00:14.143Z,92.88
2023-04-11T09:02:59.229Z,91.88
2023-04-11T09:05:40.667Z,92.20
2023-04-11T09:08:09.775Z,92.08
2023-04-11T09:10:38.395Z,90.81
2023-04-11T09:13:34.463Z,91.26
2023-04-11T09:16:12.403Z,92.11
2023-04-11T09:18:43.647Z,93.29
2023-04-11T09:21:13.427Z,92.59
2023-04-11T09:23:40.729Z,88.71
2023-04-11T09:26:09.227Z,87.20
2023-04-11T09:28:53.611Z,84.90
2023-04-11T09:31:22.003Z,84.84
2023-04-11T09:33:59.871Z,85.79
2023-04-11T09:36:27.333Z,83.70
2023-04-11T09:38:54.450Z,84.34
2023-04-11T09:41:32.222Z,80.28
2023-04-11T09:43:59.748Z,72.70
2023-04-11T09:46:26.694Z,73.10
2023-04-11T09:48:57.617Z,73.32
2023-04-11T09:51:35.871Z,73.55
2023-04-11T09:54:05.229Z,74.75
2023-04-11T09:56:34.364Z,77.56
2023-04-11T09:59:02.814Z,85.93
2023-04-11T10:01:29.665Z,93.08
2023-04-11T10:03:57.436Z,96.50
2023-04-11T10:06:34.985Z,98.52
2023-04-11T10:09:11.522Z,102.48
2023-04-11T10:11:43.293Z,103.46
2023-04-11T10:14:29.951Z,103.12
2023-04-11T10:17:20.604Z,104.50
2023-04-11T10:19:56.624Z,106.40
2023-04-11T10:22:43.123Z,108.65
2023-04-11T10:25:17.578Z,107.80
2023-04-11T10:28:01.431Z,107.74
2023-04-11T10:30:49.108Z,107.46
2023-04-11T10:33:21.095Z,105.15
2023-04-11T10:36:10.240Z,103.84
2023-04-11T10:38:43.794Z,106.37
2023-04-11T10:41:22.890Z,105.37
2023-04-11T10:43:50.199Z,105.07
2023-04-11T10:46:25.415Z,103.02
2023-04-11T10:48:59.817Z,94.54
2023-04-11T10:51:28.238Z,94.03
2023-04-11T10:53:59.587Z,93.31
2023-04-11T10:56:45.900Z,95.67
2023-04-11T10:59:31.502Z,98.24
2023-04-11T11:02:01.453Z,93.88
2023-04-11T11:04:36.261Z,92.88
2023-04-11T11:07:05.382Z,93.46
2023-04-11T11:09:33.907Z,93.37
2023-04-11T11:12:14.989Z,89.15
2023-04-11T11:14:46.864Z,86.33
2023-04-11T11:17:14.855Z,85.56
2023-04-11T11:19:46.177Z,85.58
2023-04-11T11:22:25.949Z,78.04
2023-04-11T11:24:53.349Z,71.80
2023-04-11T11:27:24.446Z,76.53
2023-04-11T11:29:51.878Z,80.19
2023-04-11T11:32:29.238Z,81.83
2023-04-11T11:34:57.847Z,80.48
2023-04-11T11:37:25.248Z,77.44
2023-04-11T11:39:52.627Z,80.01
2023-04-11T11:42:19.723Z,79.16
2023-04-11T11:44:46.502Z,78.67
2023-04-11T11:47:16.605Z,82.55
2023-04-11T11:49:56.141Z,80.79
2023-04-11T11:52:37.520Z,81.94
2023-04-11T11:55:08.729Z,81.49
2023-04-11T11:57:37.527Z,77.81
2023-04-11T12:00:10.220Z,75.02
2023-04-11T12:02:39.353Z,68.22
2023-04-11T12:05:07.589Z,65.50
2023-04-11T12:07:38.428Z,64.02
2023-04-11T12:10:08.182Z,62.60
2023-04-11T12:12:36.693Z,65.80
2023-04-11T12:15:26.561Z,68.07
2023-04-11T12:17:54.960Z,71.32
2023-04-11T12:20:26.552Z,72.32
2023-04-11T12:22:55.050Z,76.41
2023-04-11T12:25:23.190Z,69.46
2023-04-11T12:27:50.023Z,68.13
2023-04-11T12:30:16.900Z,67.50
2023-04-11T12:32:44.646Z,63.73
2023-04-11T12:35:12.836Z,64.71
2023-04-11T12:37:39.932Z,67.36
2023-04-11T12:40:13.155Z,65.50
2023-04-11T12:45:12.068Z,62.95
2023-04-11T12:47:39.185Z,61.22
2023-04-11T12:50:07.249Z,59.75
2023-04-11T12:52:34.724Z,54.09
2023-04-11T12:55:01.515Z,53.13
2023-04-11T12:57:28.298Z,51.79
2023-04-11T12:59:55.131Z,54.30
2023-04-11T13:02:22.129Z,53.76
2023-04-11T13:04:54.496Z,53.53
2023-04-11T13:07:21.940Z,55.96
2023-04-11T13:09:49.540Z,51.36
2023-04-11T13:12:16.501Z,52.49
2023-04-11T13:14:43.423Z,54.46
2023-04-11T13:17:10.298Z,57.00
2023-04-11T13:19:37.298Z,58.35
2023-04-11T13:22:04.097Z,60.26
2023-04-11T13:24:31.996Z,58.84
2023-04-11T13:26:59.061Z,61.67
2023-04-11T13:29:25.929Z,66.20
2023-04-11T13:31:52.894Z,66.70
2023-04-11T13:34:21.219Z,68.88
2023-04-11T13:36:48.071Z,71.82
2023-04-11T13:39:14.895Z,72.40
2023-04-11T13:41:41.838Z,79.38
2023-04-11T13:44:08.605Z,84.03
2023-04-11T13:46:35.350Z,86.09
2023-04-11T13:49:02.122Z,87.32
2023-04-11T13:51:28.838Z,89.11
2023-04-11T13:53:55.755Z,91.17
2023-04-11T13:56:23.286Z,91.31
2023-04-11T13:58:50.714Z,91.24
2023-04-11T14:01:20.142Z,91.20
2023-04-11T14:03:47.911Z,87.79
2023-04-11T14:06:14.774Z,88.22
2023-04-11T14:08:41.637Z,89.76
2023-04-11T14:11:08.484Z,89.65
2023-04-11T14:13:35.381Z,91.89
2023-04-11T14:16:09.009Z,92.42
2023-04-11T14:18:36.559Z,92.68
2023-04-11T14:21:05.784Z,94.37
2023-04-11T14:23:32.526Z,95.95
2023-04-11T14:25:59.310Z,96.65
2023-04-11T14:28:27.044Z,98.15
2023-04-11T14:30:55.657Z,96.20
2023-04-11T14:33:23.148Z,100.27
2023-04-11T14:35:51.075Z,98.66
2023-04-11T14:38:17.848Z,98.75
2023-04-11T14:40:45.014Z,100.21
2023-04-11T14:43:12.528Z,100.92
2023-04-11T14:45:39.490Z,103.34
2023-04-11T14:48:06.704Z,102.84
2023-04-11T14:50:34.077Z,102.85
2023-04-11T14:53:01.111Z,101.71
2023-04-11T14:55:28.075Z,103.60
2023-04-11T14:57:56.514Z,103.85
2023-04-11T15:00:24.730Z,104.61
2023-04-11T15:02:54.062Z,105.49
2023-04-11T15:05:22.561Z,106.68
2023-04-11T15:07:51.587Z,104.69
2023-04-11T15:10:24.480Z,101.72
2023-04-11T15:12:51.276Z,103.54
2023-04-11T15:15:18.430Z,104.59
2023-04-11T15:17:47.532Z,101.95
2023-04-11T15:20:15.140Z,102.99
2023-04-11T15:22:44.232Z,102.01
2023-04-11T15:25:13.431Z,100.09
2023-04-11T15:27:41.212Z,100.61
2023-04-11T15:30:08.873Z,98.84
2023-04-11T15:32:36.069Z,98.21
2023-04-11T15:35:02.882Z,98.99
2023-04-11T15:37:29.736Z,99.67
2023-04-11T15:39:57.815Z,100.32
2023-04-11T15:42:24.976Z,99.35
2023-04-11T15:44:51.857Z,100.20
2023-04-11T15:47:18.973Z,99.77
2023-04-11T15:49:46.127Z,98.77
2023-04-11T15:52:13.030Z,101.04
2023-04-11T15:54:39.951Z,97.80
2023-04-11T15:57:06.761Z,98.34
2023-04-11T15:59:33.883Z,95.74
2023-04-11T16:02:00.807Z,94.02
2023-04-11T16:04:29.962Z,91.52
2023-04-11T16:06:56.986Z,91.06
2023-04-11T16:09:24.146Z,90.36
2023-04-11T16:11:50.871Z,92.13
2023-04-11T16:14:17.712Z,93.08
2023-04-11T16:16:46.644Z,91.82
2023-04-11T16:19:13.602Z,90.38
2023-04-11T16:21:40.454Z,93.08
2023-04-11T16:24:07.773Z,94.47
2023-04-11T16:26:35.185Z,95.17
2023-04-11T16:29:03.444Z,93.69
2023-04-11T16:31:31.663Z,94.01
2023-04-11T16:33:58.984Z,94.68
2023-04-11T16:36:26.912Z,93.81
2023-04-11T16:38:53.964Z,94.37
2023-04-11T16:41:20.900Z,92.59
2023-04-11T16:43:47.864Z,92.08
2023-04-11T16:46:15.485Z,92.53
2023-04-11T16:48:43.161Z,92.40
2023-04-11T16:51:11.313Z,92.46
2023-04-11T16:53:39.250Z,93.66
2023-04-11T16:56:06.429Z,92.63
2023-04-11T16:58:33.687Z,93.81
2023-04-11T17:01:01.379Z,94.22
2023-04-11T17:03:28.775Z,94.46
2023-04-11T17:05:55.997Z,99.60
2023-04-11T17:08:23.034Z,95.76
2023-04-11T17:10:49.872Z,93.75
2023-04-11T17:13:18.707Z,95.58
2023-04-11T17:15:46.364Z,95.46
2023-04-11T17:18:14.845Z,95.62
2023-04-11T17:20:43.604Z,95.62
2023-04-11T17:23:10.659Z,95.85
2023-04-11T17:25:37.486Z,95.26
2023-04-11T17:28:04.518Z,96.12
2023-04-11T17:30:32.246Z,95.23
2023-04-11T17:32:59.797Z,96.70
2023-04-11T17:35:29.920Z,95.81
2023-04-11T17:37:56.812Z,95.75
2023-04-11T17:40:23.926Z,96.55
2023-04-11T17:42:51.303Z,96.69
2023-04-11T17:45:19.372Z,97.33
2023-04-11T17:47:47.765Z,98.24
2023-04-11T17:50:16.074Z,96.94
2023-04-11T17:52:45.006Z,98.00
2023-04-11T17:55:13.671Z,98.28
2023-04-11T17:57:41.021Z,99.35
2023-04-11T18:00:24.232Z,98.48
2023-04-11T18:02:54.638Z,98.80
2023-04-11T18:05:24.872Z,100.27
2023-04-11T18:07:54.267Z,99.87
2023-04-11T18:10:22.029Z,99.68
2023-04-11T18:12:53.819Z,100.76
2023-04-11T18:15:25.427Z,100.60
2023-04-11T18:17:52.237Z,101.56
2023-04-11T18:20:20.080Z,102.54
2023-04-11T18:22:50.237Z,101.38
2023-04-11T18:25:17.774Z,102.36
2023-04-11T18:27:45.632Z,101.38
2023-04-11T18:30:14.339Z,101.00
2023-04-11T18:32:47.206Z,101.66
2023-04-11T18:35:16.081Z,103.28
2023-04-11T18:37:42.846Z,102.37
2023-04-11T18:40:14.218Z,102.30
2023-04-11T18:42:44.342Z,102.96
2023-04-11T18:45:12.200Z,103.25
2023-04-11T18:47:41.508Z,103.76
2023-04-11T18:50:08.993Z,104.35
2023-04-11T18:52:36.014Z,104.96
2023-04-11T18:55:03.426Z,105.15
2023-04-11T18:57:34.442Z,105.40
2023-04-11T19:00:12.900Z,105.34
2023-04-11T19:02:44.541Z,105.19
2023-04-11T19:05:14.651Z,105.08
2023-04-11T19:07:42.741Z,104.99
2023-04-11T19:10:11.218Z,105.55
2023-04-11T19:12:38.569Z,105.28
2023-04-11T19:15:07.760Z,105.54
2023-04-11T19:17:38.867Z,105.74
2023-04-11T19:20:12.102Z,105.85
2023-04-11T19:22:42.758Z,105.32
2023-04-11T19:25:11.128Z,105.44
2023-04-11T19:27:42.460Z,105.09
2023-04-11T19:30:11.343Z,105.27
2023-04-11T19:32:40.922Z,105.18
2023-04-11T19:35:10.462Z,105.22
2023-04-11T19:37:38.057Z,105.06
2023-04-11T19:40:24.332Z,105.32
2023-04-11T19:42:51.555Z,104.49
2023-04-11T19:45:18.858Z,105.24
2023-04-11T19:47:46.370Z,106.56
2023-04-11T19:50:13.768Z,106.01
2023-04-11T19:52:42.828Z,105.40
2023-04-11T19:55:10.872Z,106.27
2023-04-11T19:57:38.980Z,106.47
2023-04-11T20:00:14.504Z,106.71
2023-04-11T20:02:44.794Z,106.81
2023-04-11T20:05:13.869Z,106.55
2023-04-11T20:07:42.461Z,106.34
2023-04-11T20:10:10.745Z,106.08
2023-04-11T20:12:37.683Z,106.24
2023-04-11T20:15:04.845Z,106.97
2023-04-11T20:17:31.751Z,106.75
2023-04-11T20:19:58.669Z,106.88
2023-04-11T20:22:25.716Z,107.20
2023-04-11T20:24:52.491Z,106.76
2023-04-11T20:27:19.747Z,106.92
2023-04-11T20:29:47.149Z,106.98
2023-04-11T20:32:14.014Z,107.33
2023-04-11T20:34:40.935Z,107.76
2023-04-11T20:37:08.955Z,107.94
2023-04-11T20:39:35.884Z,107.63
2023-04-11T20:42:02.694Z,107.74
2023-04-11T20:44:29.515Z,108.41
2023-04-11T20:46:57.095Z,108.56
2023-04-11T20:49:28.185Z,108.08
2023-04-11T20:51:54.992Z,108.33
2023-04-11T20:54:21.905Z,108.79
2023-04-11T20:56:48.826Z,108.58
2023-04-11T20:59:15.730Z,108.43
2023-04-11T21:01:43.995Z,109.18
2023-04-11T21:04:11.429Z,109.10
2023-04-11T21:06:38.477Z,109.20
2023-04-11T21:09:05.840Z,109.08
2023-04-11T21:11:33.069Z,109.81
2023-04-11T21:13:59.941Z,109.73
2023-04-11T21:16:26.851Z,109.67
2023-04-11T21:18:53.674Z,110.24
2023-04-11T21:21:20.632Z,110.38
2023-04-11T21:23:47.376Z,110.32
2023-04-11T21:26:14.244Z,110.48
2023-04-11T21:28:41.020Z,110.58
2023-04-11T21:31:07.874Z,110.27
2023-04-11T21:33:34.725Z,110.63
2023-04-11T21:36:01.702Z,110.79
2023-04-11T21:38:29.054Z,111.22
2023-04-11T21:40:56.881Z,111.19
2023-04-11T21:43:24.048Z,111.81
2023-04-11T21:45:50.903Z,112.05
2023-04-11T21:48:17.811Z,111.94
2023-04-11T21:50:45.758Z,111.79
2023-04-11T21:53:14.011Z,111.70
2023-04-11T21:55:47.356Z,111.82
2023-04-11T21:58:27.993Z,112.26
2023-04-11T22:00:56.323Z,112.63
2023-04-11T22:03:23.787Z,112.46
2023-04-11T22:05:52.242Z,113.77
2023-04-11T22:08:22.858Z,114.39
2023-04-11T22:10:50.755Z,114.54
2023-04-11T22:13:19.280Z,114.80
2023-04-11T22:15:48.846Z,114.76
2023-04-11T22:18:15.795Z,114.75
2023-04-11T22:20:43.822Z,114.90
2023-04-11T22:23:13.187Z,115.15
2023-04-11T22:25:44.002Z,115.28
2023-04-11T22:28:18.265Z,115.26
2023-04-11T22:30:46.562Z,115.52
2023-04-11T22:33:16.809Z,116.02
2023-04-11T22:35:50.529Z,115.32
2023-04-11T22:38:17.331Z,116.02
2023-04-11T22:40:44.096Z,116.27
2023-04-11T22:43:11.051Z,115.60
2023-04-11T22:45:38.045Z,115.44
2023-04-11T22:48:06.263Z,115.57
2023-04-11T22:50:37.341Z,115.75
2023-04-11T22:53:04.824Z,116.00
2023-04-11T22:55:35.411Z,116.06
2023-04-11T22:58:03.237Z,116.32
2023-04-11T23:00:31.387Z,117.31
2023-04-11T23:02:59.891Z,117.86
2023-04-11T23:05:26.853Z,118.34
2023-04-11T23:07:53.609Z,118.20
2023-04-11T23:10:20.402Z,118.73
2023-04-11T23:12:48.170Z,118.66
2023-04-11T23:15:15.153Z,118.99
2023-04-11T23:17:41.986Z,118.35
2023-04-11T23:20:13.788Z,118.30
2023-04-11T23:22:42.315Z,118.64
2023-04-11T23:25:14.342Z,118.99
2023-04-11T23:27:43.361Z,118.93
2023-04-11T23:30:11.893Z,118.99
2023-04-11T23:32:39.793Z,118.99
2023-04-11T23:35:07.603Z,118.79
2023-04-11T23:37:34.362Z,118.29
2023-04-11T23:40:07.372Z,118.05
2023-04-11T23:42:34.153Z,118.00
2023-04-11T23:45:00.941Z,117.64
2023-04-11T23:47:27.856Z,117.84
2023-04-11T23:49:54.715Z,118.40
2023-04-11T23:52:21.658Z,118.43
2023-04-11T23:54:49.822Z,118.47
2023-04-11T23:57:16.950Z,118.17
2023-04-11T23:59:43.980Z,118.30
